Terminal Aerodrome Forecast
Issued by NWS

Home | Current Version | Previous Version | Text Only | Print | Product List | Glossary On
Versions: 1 2 3 4 5 6 7 8 9 10 11 12 13
721
FTUS45 KABQ 210531
TAFLVS
TAF
KLVS 210531Z 2106/2206 22018G28KT P6SM BKN090
     FM210900 24022G32KT P6SM VCSH OVC070
     FM211800 28028G38KT P6SM BKN100
     FM220000 32025G35KT P6SM BKN080
     FM220300 34015KT P6SM BKN100=

USA.gov is the U.S. government's official web portal to all federal, state and local government web resources and services.